Portada
METAR-TAF:

METAR-TAF

Aeropuertos :

Red Wing Regional Airport

Red Wing, Minnesota, Estados Unidos

latitud: 44-35-25N, longitud: 092-29-10W, altitud: 239 m

Observación

El informe se hizo hace 24 minutos, a las 01:55 UTC
Viento 5 kt del noroeste
Temperatura 21°C
Humedad 33%
Presión 1013 hPa
Visibilidad: 16.1 km
Cielo despejado

METAR: KRGK 290155Z AUTO 32005KT 10SM CLR 21/04 A2991 RMK AO2

Hora: 21:19 (02:19 UTC)


TAF: falta

Observaciones y pronósticos meteorológicos de más de 4000 aeropuertos (mensajes METAR y TAF).

Los puntos amarillos y rojos representan las estaciones disponibles.

Ponga el ratón en el punto deseado para ver el nombre de la estación.

Haga clic para ver las observaciones y los pronósticos meteorológicos.

Para cambiar el mapa : haga clic en los botones verdes con una cruz de color negro para hacer un zoom, en el botón verde con un guión para alejar o en las flechas verdes para mapas adyacentes.


METAR-TAF: